WetterOnline ( http://www.wetteronline.de )

Wetter aktuell Nuthetal

Aktuelles Wetter: Potsdam (100m)

6-stündlich | Neueste Meldungen
Ortszeit Temperatur Wetter
Di, 20.02. 13:00 2.9° C leicht bewölkt
Di, 20.02. 7:00 -2.1° C wolkig
Di, 20.02. 1:00 -1.2° C leicht bewölkt
Mo, 19.02. 19:00 1.4° C bewölkt
Mo, 19.02. 13:00 4.1° C leicht bewölkt
Mo, 19.02. 7:00 -1.7° C wolkig
Mo, 19.02. 1:00 0.5° C wolkig
So, 18.02. 19:00 1.8° C bewölkt
Ortszeit Temperatur Wetter
Di, 20.02. 16:00 3.1° C fast wolkenlos
Di, 20.02. 15:50 3.1° C wolkenlos
Di, 20.02. 15:40 3.2° C wolkenlos
Di, 20.02. 15:30 3.6° C leicht bewölkt
Di, 20.02. 15:20 3.6° C wolkenlos
Di, 20.02. 15:10 3.7° C wolkenlos
Di, 20.02. 15:00 4.0° C leicht bewölkt
Di, 20.02. 14:30 4.0° C wolkenlos
Di, 20.02. 14:00 4.2° C fast wolkenlos
Di, 20.02. 13:30 3.5° C leicht bewölkt
Di, 20.02. 13:00 2.9° C leicht bewölkt
Ortszeit Relative Feuchte Sichtweite
Di, 20.02. 13:00 59% 14 km
Di, 20.02. 7:00 88% 12 km
Di, 20.02. 1:00 82% 18 km
Mo, 19.02. 19:00 71% 20 km
Mo, 19.02. 13:00 60% 23 km
Mo, 19.02. 7:00 85% 22 km
Mo, 19.02. 1:00 76% 40 km
So, 18.02. 19:00 71% 40 km
Ortszeit Relative Feuchte Sichtweite
Di, 20.02. 16:00 57% 20 km
Di, 20.02. 15:50 57% -
Di, 20.02. 15:40 55% -
Di, 20.02. 15:30 55% 16 km
Di, 20.02. 15:20 55% -
Di, 20.02. 15:10 53% -
Di, 20.02. 15:00 52% 16 km
Di, 20.02. 14:30 51% 11 km
Di, 20.02. 14:00 53% 9 km
Di, 20.02. 13:30 56% 14 km
Di, 20.02. 13:00 59% 14 km
Ortszeit Niederschlagsmenge Niederschlagsart
Di, 20.02. 13:00 0.0 l/m2 in 6 Std. -
Di, 20.02. 7:00 0.0 l/m2 in 12 Std. -
Di, 20.02. 1:00 0.0 l/m2 in 6 Std. -
Mo, 19.02. 19:00 0.0 l/m2 in 12 Std. -
Mo, 19.02. 13:00 0.0 l/m2 in 6 Std. -
Mo, 19.02. 7:00 0.0 l/m2 in 12 Std. -
Mo, 19.02. 1:00 0.0 l/m2 in 6 Std. -
So, 18.02. 19:00 0.0 l/m2 in 12 Std. -
Ortszeit Niederschlagsmenge Niederschlagsart
Di, 20.02. 16:00 0.0 l/m2 in 1 Std. -
Di, 20.02. 15:50 keine Meldung -
Di, 20.02. 15:40 keine Meldung -
Di, 20.02. 15:30 0.0 l/m2 in 1 Std. -
Di, 20.02. 15:20 keine Meldung -
Di, 20.02. 15:10 keine Meldung -
Di, 20.02. 15:00 0.0 l/m2 in 1 Std. -
Di, 20.02. 14:30 0.0 l/m2 in 1 Std. -
Di, 20.02. 14:00 0.0 l/m2 in 1 Std. -
Di, 20.02. 13:30 0.0 l/m2 in 1 Std. -
Di, 20.02. 13:00 0.0 l/m2 in 1 Std. -
Ortszeit Stärke Spitze Richtung
km/h Bft. km/h Grad Sektor
Di, 20.02. 13:00 13 3 30 110° O
Di, 20.02. 7:00 14 3 22 80° O
Di, 20.02. 1:00 11 2 14 80° O
Mo, 19.02. 19:00 9 2 20 110° O
Mo, 19.02. 13:00 7 2 22 210° SW
Mo, 19.02. 7:00 11 2 25 160° S
Mo, 19.02. 1:00 13 3 20 150° SO
So, 18.02. 19:00 7 2 18 170° S
Ortszeit Stärke Spitze Richtung
km/h Bft. km/h Grad Sektor
Di, 20.02. 16:00 20 4 28 70° O
Di, 20.02. 15:50 20 4 - 70° O
Di, 20.02. 15:40 18 3 - 60° NO
Di, 20.02. 15:30 18 3 29 70° O
Di, 20.02. 15:20 18 3 - 70° O
Di, 20.02. 15:10 14 3 - 80° O
Di, 20.02. 15:00 15 3 26 80° O
Di, 20.02. 14:30 18 3 25 100° O
Di, 20.02. 14:00 13 3 30 80° O
Di, 20.02. 13:30 15 3 30 110° O
Di, 20.02. 13:00 13 3 26 110° O
Ortszeit Untergrenze Bedeckung Gattung
total tief tief mittel hoch
Di, 20.02. 13:00 7500 m 2/8 0/8 - - Ci
Di, 20.02. 7:00 3300 m 7/8 7/8 - Ac -
Di, 20.02. 1:00 3000 m 5/8 5/8 - Ac -
Mo, 19.02. 19:00 1020 m 7/8 1/8 Sc As -
Mo, 19.02. 13:00 3000 m 7/8 3/8 - Ac Ci
Mo, 19.02. 7:00 3000 m 8/8 5/8 - As Cs
Mo, 19.02. 1:00 1080 m 7/8 1/8 Sc Ac Ci
So, 18.02. 19:00 1020 m 7/8 7/8 Sc - -
Ortszeit Bedeckungsgrad in Achtel und Wolkenuntergrenze
Di, 20.02. 16:00 1(600m)
Di, 20.02. 15:50 keine Wolken
Di, 20.02. 15:40 keine Wolken
Di, 20.02. 15:30 1(600m)
Di, 20.02. 15:20 keine Wolken
Di, 20.02. 15:10 keine Wolken
Di, 20.02. 15:00 1(600m)
Di, 20.02. 14:30 keine Wolken
Di, 20.02. 14:00 2(4800m)
Di, 20.02. 13:30 2(7500m)
Di, 20.02. 13:00 2(7500m) 8(6000m)
Ortszeit Luftdruck NN (hPa) Tendenz (hPa in 3 Std.)
Di, 20.02. 13:00 1020 - 0,3
Di, 20.02. 7:00 1020 0,0
Di, 20.02. 1:00 1020 - 0,3
Mo, 19.02. 19:00 1020 - 0,2
Mo, 19.02. 13:00 1022 - 1,2
Mo, 19.02. 7:00 1023 - 1,1
Mo, 19.02. 1:00 1026 - 1,6
So, 18.02. 19:00 1028 - 0,6
Ortszeit Luftdruck NN (hPa) Tendenz (hPa in 3 Std.)
Di, 20.02. 16:00 1020 + 0,2
Di, 20.02. 15:50 1020 keine Meldung
Di, 20.02. 15:40 1020 keine Meldung
Di, 20.02. 15:30 1020 0,0
Di, 20.02. 15:20 1020 keine Meldung
Di, 20.02. 15:10 1020 keine Meldung
Di, 20.02. 15:00 1020 - 0,1
Di, 20.02. 14:30 1020 - 0,4
Di, 20.02. 14:00 1020 - 0,4
Di, 20.02. 13:30 1020 - 0,3
Di, 20.02. 13:00 1020 - 0,3
Ortszeit Schneehöhe (cm)
Di, 20.02. 13:00 0
Di, 20.02. 7:00 0
Di, 20.02. 1:00 0
Mo, 19.02. 19:00 0
Mo, 19.02. 13:00 0
Mo, 19.02. 7:00 0
Mo, 19.02. 1:00 0
So, 18.02. 19:00 0
Ortszeit Schneehöhe (cm)
Di, 20.02. 16:00 -
Di, 20.02. 15:50 -
Di, 20.02. 15:40 -
Di, 20.02. 15:30 -
Di, 20.02. 15:20 -
Di, 20.02. 15:10 -
Di, 20.02. 15:00 -
Di, 20.02. 14:30 -
Di, 20.02. 14:00 -
Di, 20.02. 13:30 -
Di, 20.02. 13:00 0
Link zu dieser Seite / Seite empfehlen

Das Wetter in ...